Time;durP1;ratioP1;P1;durP2;ratioP2;P2;SDS_P1;SDS_P2;PMS_P1;PMS_P2;Temp;Humidity;BMP_temperature;BMP_pressure;BME280_temperature;BME280_humidity;BME280_pressure;Samples;Min_cycle;Max_cycle;Signal;HPM_P1;HPM_P2
2023/02/04 09:17:25;;;;;;;;;15.00;10.25;;;;;11.22;100.00;103557.94;4922179;28;50141;-63
2023/02/04 09:19:50;;;;;;;;;12.50;10.75;;;;;11.37;100.00;103588.72;4905164;28;50804;-67
2023/02/04 09:22:16;;;;;;;;;15.00;12.00;;;;;11.38;100.00;103590.53;4910445;28;60597;-69
2023/02/04 09:24:41;;;;;;;;;10.25;10.25;;;;;11.26;100.00;103562.56;4913025;28;49974;-67
2023/02/04 09:27:06;;;;;;;;;12.25;10.50;;;;;11.44;100.00;103590.03;4912506;28;49956;-67
2023/02/04 09:29:32;;;;;;;;;13.25;12.25;;;;;11.46;100.00;103586.66;4911936;28;68641;-67
2023/02/04 09:31:57;;;;;;;;;13.50;11.25;;;;;11.36;100.00;103573.75;4918378;28;49744;-64
2023/02/04 09:34:23;;;;;;;;;10.25;10.25;;;;;10.97;100.00;103492.41;4915323;28;63454;-67
2023/02/04 09:36:48;;;;;;;;;16.25;14.00;;;;;11.50;100.00;103587.78;4915027;28;50109;-67
2023/02/04 09:39:14;;;;;;;;;14.25;13.00;;;;;11.45;100.00;103578.69;4905134;28;50971;-64
2023/02/04 09:41:39;;;;;;;;;10.75;9.75;;;;;11.42;100.00;103571.53;4901881;28;49999;-65
2023/02/04 09:44:13;;;;;;;;;10.50;10.00;;;;;11.52;100.00;103591.41;4921481;28;49853;-64
2023/02/04 09:46:40;;;;;;;;;19.00;15.25;;;;;11.51;100.00;103594.88;4919784;28;49560;-63
2023/02/04 09:49:09;;;;;;;;;17.00;12.75;;;;;11.39;100.00;103584.50;4909276;28;50046;-62
2023/02/04 09:51:34;;;;;;;;;14.00;11.50;;;;;11.27;100.00;103554.78;4913540;28;49873;-62
2023/02/04 09:54:10;;;;;;;;;10.50;10.50;;;;;11.45;100.00;103586.56;4917336;28;49372;-62
2023/02/04 09:56:36;;;;;;;;;19.00;16.25;;;;;11.42;100.00;103574.16;4915999;28;50040;-63
2023/02/04 09:59:03;;;;;;;;;9.50;9.50;;;;;11.56;100.00;103596.03;4902478;28;50104;-68
2023/02/04 10:01:28;;;;;;;;;13.00;13.00;;;;;11.55;100.00;103588.06;4909402;28;50099;-66
2023/02/04 10:03:59;;;;;;;;;12.00;9.75;;;;;11.56;100.00;103589.88;4924405;28;49430;-66
2023/02/04 10:06:25;;;;;;;;;10.00;8.75;;;;;11.66;100.00;103601.03;4930672;28;49893;-73
2023/02/04 10:08:51;;;;;;;;;14.50;11.25;;;;;11.74;100.00;103631.38;4921657;28;51096;-69
2023/02/04 10:11:19;;;;;;;;;16.25;15.00;;;;;11.71;100.00;103596.09;4921439;28;49836;-67
2023/02/04 10:13:49;;;;;;;;;14.25;12.25;;;;;11.78;100.00;103618.44;4926477;28;49705;-70
2023/02/04 10:16:22;;;;;;;;;14.75;13.50;;;;;11.82;100.00;103623.09;4918715;28;50054;-66
2023/02/04 10:18:48;;;;;;;;;14.00;13.00;;;;;11.72;100.00;103595.25;4918792;28;51614;-68
2023/02/04 10:21:21;;;;;;;;;10.75;8.50;;;;;11.78;100.00;103603.56;4911447;28;50181;-68
2023/02/04 10:23:50;;;;;;;;;14.50;13.00;;;;;11.78;100.00;103614.06;4911165;28;49937;-69
2023/02/04 10:26:16;;;;;;;;;15.25;12.00;;;;;11.84;100.00;103624.09;4913025;28;49962;-66
2023/02/04 10:28:42;;;;;;;;;15.00;15.00;;;;;11.76;100.00;103610.41;4912006;28;49982;-68
2023/02/04 10:31:41;;;;;;;;;18.25;13.25;;;;;11.85;100.00;103618.00;4912221;28;49811;-68
2023/02/04 10:34:17;;;;;;;;;19.75;14.50;;;;;11.97;100.00;103634.56;4900486;28;49939;-69
2023/02/04 10:36:45;;;;;;;;;17.50;15.50;;;;;11.81;100.00;103589.69;4912649;28;49916;-70
2023/02/04 10:39:21;;;;;;;;;18.25;17.75;;;;;12.09;100.00;103632.66;4914213;28;50664;-70
2023/02/04 10:41:49;;;;;;;;;17.75;16.75;;;;;12.21;100.00;103632.50;4911811;28;49998;-70
2023/02/04 10:44:17;;;;;;;;;20.50;15.50;;;;;12.25;100.00;103629.19;4912351;28;49624;-70
2023/02/04 10:46:43;;;;;;;;;16.50;14.75;;;;;12.19;100.00;103600.78;4913632;28;49676;-71
2023/02/04 10:49:22;;;;;;;;;25.00;21.00;;;;;12.32;100.00;103628.75;4915581;28;50353;-70
2023/02/04 10:51:49;;;;;;;;;20.00;20.00;;;;;11.87;100.00;103538.34;4915142;28;49953;-70
2023/02/04 10:54:29;;;;;;;;;19.50;16.00;;;;;12.56;100.00;103637.22;4915522;28;49898;-70
2023/02/04 10:57:16;;;;;;;;;21.75;20.25;;;;;12.63;100.00;103613.00;4914493;28;50118;-70
2023/02/04 10:59:42;;;;;;;;;18.25;17.75;;;;;12.71;100.00;103611.72;4911014;28;49745;-67
2023/02/04 11:02:40;;;;;;;;;14.25;13.25;;;;;12.70;100.00;103595.81;4915125;28;49716;-67
2023/02/04 11:05:15;;;;;;;;;20.75;18.75;;;;;13.00;100.00;103625.66;4913157;28;50217;-67
2023/02/04 11:07:41;;;;;;;;;20.75;17.25;;;;;13.03;100.00;103615.31;4915501;28;50309;-67
2023/02/04 11:10:12;;;;;;;;;22.25;20.25;;;;;13.18;100.00;103630.22;4914953;28;49751;-65
2023/02/04 11:12:42;;;;;;;;;20.75;20.25;;;;;13.14;100.00;103585.16;4915115;28;49748;-66
2023/02/04 11:15:55;;;;;;;;;19.25;16.50;;;;;13.39;100.00;103617.34;4915435;28;49915;-66
2023/02/04 11:18:21;;;;;;;;;21.75;21.25;;;;;13.49;100.00;103613.47;4909808;28;49868;-65
2023/02/04 11:20:48;;;;;;;;;20.50;17.25;;;;;13.50;100.00;103620.56;4914581;28;53077;-67
2023/02/04 11:23:16;;;;;;;;;17.25;13.50;;;;;13.44;100.00;103626.44;4915013;28;49895;-65
2023/02/04 11:25:41;;;;;;;;;13.25;13.25;;;;;13.24;100.00;103594.50;4915189;28;50062;-65
2023/02/04 11:28:24;;;;;;;;;13.00;13.00;;;;;13.36;100.00;103632.13;4915042;28;49656;-65
2023/02/04 11:31:01;;;;;;;;;19.00;19.00;;;;;13.16;100.00;103602.88;4908801;28;49939;-64
2023/02/04 11:33:37;;;;;;;;;13.75;13.75;;;;;13.11;100.00;103593.78;4914041;28;49787;-65
2023/02/04 11:36:05;;;;;;;;;12.50;11.25;;;;;12.86;100.00;103572.16;4917457;28;49916;-67
2023/02/04 11:38:31;;;;;;;;;17.25;16.00;;;;;12.97;100.00;103613.22;4914901;28;50130;-67
2023/02/04 11:40:58;;;;;;;;;14.75;13.00;;;;;12.64;100.00;103562.09;4914543;28;49925;-71
2023/02/04 11:43:23;;;;;;;;;16.50;14.75;;;;;12.71;100.00;103592.38;4917463;28;49898;-67
2023/02/04 11:46:00;;;;;;;;;17.00;16.50;;;;;12.86;100.00;103615.25;4915611;28;50031;-67
2023/02/04 11:48:26;;;;;;;;;14.25;13.25;;;;;12.67;100.00;103604.47;4912853;28;50011;-68
2023/02/04 11:50:56;;;;;;;;;16.50;13.75;;;;;12.70;100.00;103598.47;4911880;28;50851;-67
2023/02/04 11:53:27;;;;;;;;;18.00;15.25;;;;;12.13;100.00;103523.16;4916933;28;49650;-68
2023/02/04 11:55:52;;;;;;;;;15.25;15.25;;;;;12.77;100.00;103595.38;4914420;28;49707;-70
2023/02/04 11:58:19;;;;;;;;;18.75;15.25;;;;;12.77;100.00;103600.63;4913398;28;49956;-67
2023/02/04 12:00:45;;;;;;;;;19.25;18.00;;;;;12.29;100.00;103520.59;4916313;28;50750;-67
2023/02/04 12:03:44;;;;;;;;;19.00;19.00;;;;;12.92;100.00;103605.84;4913911;28;49543;-68
2023/02/04 12:06:24;;;;;;;;;18.50;17.00;;;;;12.97;100.00;103610.56;4909940;28;49938;-69
2023/02/04 12:08:49;;;;;;;;;20.75;18.00;;;;;13.00;100.00;103616.00;4913687;28;49592;-74
2023/02/04 12:11:29;;;;;;;;;18.00;18.00;;;;;12.44;100.00;103520.53;4912662;28;52178;-77
2023/02/04 12:13:56;;;;;;;;;17.25;17.25;;;;;12.98;100.00;103591.28;4916235;28;49660;-68
2023/02/04 12:16:22;;;;;;;;;18.50;17.75;;;;;13.01;100.00;103583.53;4915395;28;49625;-69
2023/02/04 12:18:48;;;;;;;;;14.75;12.50;;;;;13.19;100.00;103604.78;4907785;28;49644;-70
2023/02/04 12:21:13;;;;;;;;;14.75;14.75;;;;;13.15;100.00;103581.69;4907256;28;49632;-69
2023/02/04 12:23:41;;;;;;;;;17.25;16.00;;;;;13.05;100.00;103564.44;4906031;28;49854;-68
2023/02/04 12:26:07;;;;;;;;;23.00;21.50;;;;;13.14;100.00;103583.41;4905758;28;49904;-75
2023/02/04 12:28:32;;;;;;;;;15.75;14.50;;;;;13.33;100.00;103600.28;4915132;28;49854;-64
2023/02/04 12:30:57;;;;;;;;;13.00;12.75;;;;;13.45;100.00;103606.22;4914336;28;49953;-66
2023/02/04 12:33:23;;;;;;;;;27.75;25.25;;;;;13.42;100.00;103582.31;4911258;28;49904;-66
2023/02/04 12:35:48;;;;;;;;;13.00;13.00;;;;;13.56;100.00;103605.06;4909090;28;49823;-66
2023/02/04 12:38:14;;;;;;;;;12.50;12.00;;;;;13.54;100.00;103582.97;4919200;28;50111;-66
2023/02/04 12:40:40;;;;;;;;;13.75;12.75;;;;;13.28;100.00;103534.06;4916212;28;50003;-66
2023/02/04 12:43:06;;;;;;;;;14.50;13.25;;;;;13.49;100.00;103576.53;4913982;28;49854;-66
2023/02/04 12:45:31;;;;;;;;;16.00;15.50;;;;;13.39;100.00;103558.38;4913846;28;49846;-66
2023/02/04 12:47:56;;;;;;;;;11.75;11.75;;;;;13.43;100.00;103587.69;4913899;28;49801;-66
2023/02/04 12:50:22;;;;;;;;;12.25;10.50;;;;;13.53;100.00;103607.56;4914397;28;49714;-69
2023/02/04 12:52:52;;;;;;;;;15.00;15.00;;;;;13.12;100.00;103545.50;4914324;28;50099;-63
2023/02/04 12:55:18;;;;;;;;;13.75;11.75;;;;;13.46;100.00;103608.03;4908062;28;49931;-65
2023/02/04 12:57:43;;;;;;;;;15.25;13.00;;;;;12.87;100.00;103472.06;4914608;28;50080;-66
2023/02/04 13:00:12;;;;;;;;;11.75;11.25;;;;;13.42;100.00;103569.13;4924202;28;50790;-68
2023/02/04 13:02:37;;;;;;;;;11.25;9.50;;;;;13.47;100.00;103567.63;4913523;28;49844;-69
2023/02/04 13:05:03;;;;;;;;;16.25;13.00;;;;;13.63;100.00;103603.69;4913985;28;50110;-68
2023/02/04 13:07:28;;;;;;;;;12.50;12.00;;;;;13.57;100.00;103593.69;4919678;28;49898;-68
2023/02/04 13:09:54;;;;;;;;;11.00;9.75;;;;;13.39;100.00;103547.84;4913147;28;49882;-69
2023/02/04 13:12:19;;;;;;;;;10.00;9.00;;;;;13.44;100.00;103552.56;4915017;28;49799;-67
2023/02/04 13:14:44;;;;;;;;;10.75;10.75;;;;;13.60;100.00;103593.84;4913863;28;55486;-67
2023/02/04 13:17:10;;;;;;;;;9.50;9.50;;;;;13.30;100.00;103557.88;4913447;28;51725;-69
2023/02/04 13:19:35;;;;;;;;;14.75;14.00;;;;;13.27;100.00;103587.66;4918086;28;50437;-70
2023/02/04 13:22:01;;;;;;;;;16.75;15.50;;;;;13.23;100.00;103575.16;4914354;28;49805;-68
2023/02/04 13:24:27;;;;;;;;;15.00;15.00;;;;;13.23;100.00;103574.25;4916485;28;49716;-68
2023/02/04 13:26:52;;;;;;;;;12.50;12.50;;;;;13.37;100.00;103597.00;4915637;28;50276;-70
2023/02/04 13:29:18;;;;;;;;;17.00;15.00;;;;;13.37;100.00;103603.16;4920446;28;50418;-65
2023/02/04 13:31:44;;;;;;;;;12.00;11.50;;;;;13.41;100.00;103599.88;4922107;28;49224;-66
2023/02/04 13:34:09;;;;;;;;;17.25;13.25;;;;;13.07;100.00;103525.88;4922033;28;49516;-66
2023/02/04 13:36:34;;;;;;;;;15.75;14.50;;;;;13.46;100.00;103582.56;4916205;28;49818;-65
2023/02/04 13:39:00;;;;;;;;;9.50;9.00;;;;;13.49;100.00;103576.53;4915671;28;50898;-69
2023/02/04 13:41:28;;;;;;;;;16.25;13.25;;;;;13.64;100.00;103592.28;4917181;28;49731;-66
2023/02/04 13:43:54;;;;;;;;;16.00;14.50;;;;;13.71;100.00;103597.09;4914542;28;49797;-74
2023/02/04 13:46:20;;;;;;;;;17.25;13.00;;;;;13.74;100.00;103594.59;4921174;28;49591;-71
2023/02/04 13:48:46;;;;;;;;;11.00;11.00;;;;;13.65;100.00;103575.63;4912497;28;50643;-73
2023/02/04 13:51:11;;;;;;;;;15.50;14.75;;;;;13.73;100.00;103579.59;4910749;28;50114;-70
2023/02/04 13:53:37;;;;;;;;;14.00;13.75;;;;;13.70;100.00;103567.13;4916415;28;50047;-74
2023/02/04 13:56:02;;;;;;;;;13.50;13.50;;;;;13.33;100.00;103502.69;4915636;28;49930;-72
2023/02/04 13:58:27;;;;;;;;;19.00;17.00;;;;;13.51;100.00;103534.38;4918375;28;50964;-70
2023/02/04 14:00:56;;;;;;;;;12.25;11.75;;;;;13.58;100.00;103557.63;4912071;28;49915;-70
2023/02/04 14:03:23;;;;;;;;;14.50;13.50;;;;;13.68;100.00;103560.84;4911200;28;49950;-72
2023/02/04 14:05:49;;;;;;;;;14.75;13.25;;;;;13.72;100.00;103561.94;4911073;28;50786;-67
2023/02/04 14:08:14;;;;;;;;;13.50;13.25;;;;;13.81;100.00;103565.06;4922171;28;50020;-68
2023/02/04 14:10:39;;;;;;;;;15.00;12.00;;;;;13.86;100.00;103563.53;4916428;28;61876;-71
2023/02/04 14:13:05;;;;;;;;;10.75;10.25;;;;;13.89;100.00;103562.78;4911490;28;53626;-68
2023/02/04 14:15:31;;;;;;;;;13.00;12.00;;;;;13.88;100.00;103567.16;4914015;28;49800;-67
2023/02/04 14:17:56;;;;;;;;;12.00;11.00;;;;;13.87;100.00;103559.16;4914456;28;50762;-66
2023/02/04 14:20:21;;;;;;;;;14.00;13.25;;;;;13.86;100.00;103563.53;4911823;28;64306;-66
2023/02/04 14:22:46;;;;;;;;;13.75;12.50;;;;;13.91;100.00;103567.34;4916610;28;49921;-64
2023/02/04 14:25:12;;;;;;;;;17.50;13.00;;;;;13.84;100.00;103567.84;4915164;28;58449;-67
2023/02/04 14:27:40;;;;;;;;;11.00;11.00;;;;;13.66;100.00;103530.81;4917540;28;50926;-76
2023/02/04 14:30:15;;;;;;;;;15.00;13.50;;;;;13.61;100.00;103534.06;4916571;28;50015;-72
2023/02/04 14:32:41;;;;;;;;;13.25;12.75;;;;;13.37;100.00;103507.28;4916281;28;49772;-70
2023/02/04 14:35:06;;;;;;;;;16.50;15.00;;;;;13.42;100.00;103517.25;4913487;28;49979;-70
2023/02/04 14:37:32;;;;;;;;;5.75;5.25;;;;;13.25;100.00;103533.00;4913709;28;49987;-71
2023/02/04 14:39:57;;;;;;;;;5.00;5.00;;;;;12.73;100.00;103427.31;4914263;28;49953;-71
2023/02/04 14:42:22;;;;;;;;;6.00;6.00;;;;;12.50;100.00;103413.78;4914494;28;50648;-71
2023/02/04 14:44:48;;;;;;;;;9.50;6.50;;;;;13.04;100.00;103519.53;4914853;28;50236;-71
2023/02/04 14:47:13;;;;;;;;;6.75;6.00;;;;;12.74;100.00;103485.41;4915210;28;51314;-71
2023/02/04 14:49:39;;;;;;;;;5.25;5.25;;;;;12.61;100.00;103467.97;4915556;28;49865;-72
2023/02/04 14:52:04;;;;;;;;;5.50;5.50;;;;;12.34;100.00;103455.91;4915718;28;49815;-72
2023/02/04 14:54:29;;;;;;;;;6.00;6.00;;;;;11.85;100.00;103346.91;4915975;28;49881;-72
2023/02/04 14:56:55;;;;;;;;;6.75;5.50;;;;;13.17;100.00;103585.31;4915184;28;49740;-71
2023/02/04 14:59:20;;;;;;;;;7.25;6.00;;;;;12.97;100.00;103565.75;4915367;28;49710;-72
2023/02/04 15:01:45;;;;;;;;;7.00;4.75;;;;;11.69;100.00;103382.84;4914022;28;50357;-71
2023/02/04 15:04:11;;;;;;;;;4.00;4.00;;;;;12.79;100.00;103536.63;4915506;28;49992;-71
2023/02/04 15:06:37;;;;;;;;;5.75;5.75;;;;;12.47;100.00;103511.09;4915048;28;49992;-72
2023/02/04 15:09:02;;;;;;;;;4.00;3.75;;;;;11.53;100.00;103366.97;4915356;28;49664;-71
2023/02/04 15:11:28;;;;;;;;;5.75;4.75;;;;;12.45;100.00;103510.13;4915419;28;50295;-72
2023/02/04 15:13:53;;;;;;;;;6.50;5.00;;;;;10.98;100.00;103270.81;4915397;28;49633;-71
2023/02/04 15:16:19;;;;;;;;;6.00;4.75;;;;;12.00;100.00;103466.25;4914470;28;49924;-71
2023/02/04 15:18:44;;;;;;;;;5.25;5.25;;;;;12.74;100.00;103568.81;4914980;28;49569;-70
2023/02/04 15:21:10;;;;;;;;;8.25;5.00;;;;;12.89;100.00;103625.06;4915139;28;49754;-72
2023/02/04 15:23:35;;;;;;;;;5.50;4.75;;;;;12.88;100.00;103596.88;4915211;28;49822;-71
2023/02/04 15:26:02;;;;;;;;;6.50;5.75;;;;;12.83;100.00;103580.78;4915009;28;50287;-71
2023/02/04 15:28:28;;;;;;;;;7.25;7.25;;;;;12.03;100.00;103464.69;4915321;28;49812;-72
2023/02/04 15:30:54;;;;;;;;;5.50;5.50;;;;;12.06;100.00;103487.66;4915366;28;50022;-72
2023/02/04 15:33:19;;;;;;;;;9.00;9.00;;;;;11.70;100.00;103424.13;4914017;28;49886;-71
2023/02/04 15:35:44;;;;;;;;;11.50;10.25;;;;;12.58;100.00;103545.97;4913235;28;50756;-69
2023/02/04 15:38:10;;;;;;;;;9.50;7.00;;;;;12.82;100.00;103594.78;4917952;28;50184;-69
2023/02/04 15:40:36;;;;;;;;;5.00;5.00;;;;;12.32;100.00;103497.97;4914406;28;49843;-68
2023/02/04 15:43:01;;;;;;;;;11.50;11.50;;;;;12.58;100.00;103544.25;4914887;28;49693;-70
2023/02/04 15:45:27;;;;;;;;;5.25;5.25;;;;;11.56;100.00;103411.88;4913755;28;50911;-72
2023/02/04 15:47:52;;;;;;;;;6.00;4.25;;;;;11.86;100.00;103430.31;4914247;28;50000;-68
2023/02/04 15:50:18;;;;;;;;;5.75;5.75;;;;;12.51;100.00;103568.41;4914701;28;49900;-69
2023/02/04 15:52:43;;;;;;;;;10.50;7.50;;;;;11.84;100.00;103455.63;4913376;28;49668;-68
2023/02/04 15:55:09;;;;;;;;;8.50;7.25;;;;;12.39;100.00;103549.28;4920034;28;50593;-73
2023/02/04 15:57:35;;;;;;;;;12.00;8.00;;;;;11.72;100.00;103471.59;4912305;28;49874;-69
2023/02/04 16:00:01;;;;;;;;;8.25;8.25;;;;;12.58;100.00;103594.31;4912087;28;50021;-69
2023/02/04 16:02:30;;;;;;;;;8.00;7.00;;;;;12.62;100.00;103605.94;4907705;28;49725;-71
2023/02/04 16:04:55;;;;;;;;;12.50;11.00;;;;;12.50;100.00;103584.16;4908227;28;49975;-70
2023/02/04 16:07:21;;;;;;;;;9.75;8.50;;;;;12.05;100.00;103512.16;4908111;28;49969;-70
2023/02/04 16:09:47;;;;;;;;;15.25;13.75;;;;;12.59;100.00;103603.13;4906619;28;49755;-70
2023/02/04 16:12:12;;;;;;;;;14.50;14.00;;;;;12.01;100.00;103502.28;4904650;28;49904;-73
2023/02/04 16:14:37;;;;;;;;;13.00;12.50;;;;;11.32;100.00;103385.03;4906483;28;50662;-73
2023/02/04 16:17:07;;;;;;;;;17.50;16.00;;;;;12.11;100.00;103537.97;4902839;28;49849;-72
2023/02/04 16:19:33;;;;;;;;;13.00;12.75;;;;;12.36;100.00;103574.56;4901967;28;49906;-73
2023/02/04 16:22:05;;;;;;;;;13.00;12.50;;;;;12.17;100.00;103552.41;4909365;28;49811;-79
2023/02/04 16:24:30;;;;;;;;;16.50;15.25;;;;;12.45;100.00;103604.97;4908379;28;51099;-66
2023/02/04 16:26:56;;;;;;;;;17.00;17.00;;;;;12.24;100.00;103582.63;4909036;28;49915;-67
2023/02/04 16:29:21;;;;;;;;;15.00;15.00;;;;;12.36;100.00;103616.69;4901972;28;49790;-69
2023/02/04 16:31:46;;;;;;;;;16.25;13.00;;;;;12.26;100.00;103588.91;4917952;28;50774;-71
2023/02/04 16:34:12;;;;;;;;;13.00;12.00;;;;;12.24;100.00;103585.25;4916708;28;50290;-67
2023/02/04 16:36:37;;;;;;;;;14.50;12.75;;;;;12.23;100.00;103596.59;4917051;28;50892;-67
2023/02/04 16:39:03;;;;;;;;;15.50;13.75;;;;;12.20;100.00;103596.44;4907173;28;49730;-66
2023/02/04 16:41:28;;;;;;;;;14.50;10.75;;;;;12.23;100.00;103607.16;4914223;28;50076;-67
2023/02/04 16:43:54;;;;;;;;;14.00;12.50;;;;;12.29;100.00;103618.06;4927758;28;49908;-67
2023/02/04 16:46:19;;;;;;;;;17.75;15.75;;;;;12.35;100.00;103623.66;4921259;28;51265;-65
2023/02/04 16:48:44;;;;;;;;;14.50;14.50;;;;;12.24;100.00;103601.97;4916256;28;49893;-65
2023/02/04 16:51:10;;;;;;;;;11.00;11.00;;;;;12.35;100.00;103628.94;4915640;28;50238;-65
2023/02/04 16:53:35;;;;;;;;;16.50;15.50;;;;;12.22;100.00;103605.31;4910821;28;50030;-65
2023/02/04 16:56:01;;;;;;;;;16.50;14.25;;;;;12.33;100.00;103634.13;4928414;28;53603;-72
2023/02/04 16:58:26;;;;;;;;;14.75;13.50;;;;;12.26;100.00;103620.50;4915323;28;49695;-65
2023/02/04 17:00:52;;;;;;;;;13.00;13.00;;;;;12.04;100.00;103587.63;4919470;28;49662;-69
2023/02/04 17:03:17;;;;;;;;;13.75;12.50;;;;;12.00;100.00;103589.97;4924450;28;50566;-69
2023/02/04 17:05:42;;;;;;;;;15.50;14.00;;;;;12.11;100.00;103609.06;4911865;28;49851;-68
2023/02/04 17:08:08;;;;;;;;;15.00;15.00;;;;;12.27;100.00;103646.94;4915662;28;49649;-69
2023/02/04 17:13:19;;;;;;;;;19.00;16.00;;;;;12.21;100.00;103637.75;4897189;28;49956;-72
2023/02/04 17:15:45;;;;;;;;;18.75;16.50;;;;;12.10;100.00;103617.78;4909494;28;49948;-78
2023/02/04 17:18:10;;;;;;;;;19.00;18.00;;;;;11.41;100.00;103489.91;4923992;28;50088;-76
2023/02/04 17:20:36;;;;;;;;;19.25;18.00;;;;;11.90;100.00;103580.63;4911070;28;49703;-74
2023/02/04 17:23:01;;;;;;;;;20.75;19.50;;;;;11.70;100.00;103544.28;4910197;28;50614;-77
2023/02/04 17:25:26;;;;;;;;;23.50;20.50;;;;;11.90;100.00;103596.44;4910040;28;49710;-74
2023/02/04 17:27:52;;;;;;;;;21.75;21.75;;;;;12.33;100.00;103660.47;4903413;28;57603;-76
2023/02/04 17:30:18;;;;;;;;;24.25;21.75;;;;;12.06;100.00;103610.50;4909711;28;49729;-73
2023/02/04 17:32:44;;;;;;;;;28.50;25.00;;;;;12.32;100.00;103663.91;4910626;28;50410;-72
2023/02/04 17:35:10;;;;;;;;;29.50;24.50;;;;;12.32;100.00;103671.81;4907150;28;49913;-73
2023/02/04 17:37:35;;;;;;;;;23.50;21.50;;;;;11.74;100.00;103569.94;4908937;28;49975;-72
2023/02/04 17:40:00;;;;;;;;;18.50;18.50;;;;;12.21;100.00;103670.28;4914876;28;49495;-72
2023/02/04 17:42:26;;;;;;;;;31.75;29.25;;;;;12.21;100.00;103672.91;4912727;28;50285;-76
2023/02/04 17:44:51;;;;;;;;;26.25;24.75;;;;;11.99;100.00;103644.38;4909989;28;49596;-71
2023/02/04 17:47:17;;;;;;;;;27.25;24.25;;;;;11.89;100.00;103641.09;4913758;28;49905;-72
2023/02/04 17:49:42;;;;;;;;;22.25;22.25;;;;;12.14;100.00;103694.41;4907058;28;49406;-71
2023/02/04 17:52:07;;;;;;;;;29.25;26.25;;;;;12.13;100.00;103696.94;4904100;28;50648;-72
2023/02/04 17:54:34;;;;;;;;;24.25;22.75;;;;;11.95;100.00;103683.56;4905156;28;49952;-73
2023/02/04 17:57:01;;;;;;;;;23.00;22.00;;;;;11.92;100.00;103679.03;4905520;28;49692;-72
2023/02/04 17:59:26;;;;;;;;;19.75;19.50;;;;;11.92;100.00;103689.56;4902521;28;49878;-73
2023/02/04 18:01:52;;;;;;;;;22.25;19.00;;;;;11.73;100.00;103669.03;4902070;28;52589;-73
2023/02/04 18:04:17;;;;;;;;;19.75;17.75;;;;;11.93;100.00;103701.00;4911705;28;49986;-71
2023/02/04 18:06:42;;;;;;;;;7.75;5.25;;;;;11.75;100.00;103698.09;4915498;28;52979;-71
2023/02/04 18:09:17;;;;;;;;;11.75;9.75;;;;;11.80;100.00;103715.13;4921659;28;50651;-77
2023/02/04 18:11:43;;;;;;;;;18.50;16.75;;;;;11.68;100.00;103702.06;4915475;28;50401;-75
2023/02/04 18:14:26;;;;;;;;;17.25;15.75;;;;;11.65;100.00;103690.44;4917438;28;49802;-73
2023/02/04 18:16:59;;;;;;;;;15.25;14.75;;;;;11.42;100.00;103658.31;4920960;28;49468;-73
2023/02/04 18:19:29;;;;;;;;;15.00;14.00;;;;;11.62;100.00;103699.03;4907178;28;49950;-72
2023/02/04 18:21:57;;;;;;;;;17.50;14.75;;;;;11.64;100.00;103723.72;4905805;28;50901;-71
2023/02/04 18:24:28;;;;;;;;;10.75;10.75;;;;;11.62;100.00;103716.56;4913964;28;49511;-72
2023/02/04 18:26:58;;;;;;;;;14.00;14.00;;;;;11.64;100.00;103723.72;4920256;28;50095;-72
2023/02/04 18:29:29;;;;;;;;;16.75;16.75;;;;;11.58;100.00;103732.94;4922450;28;49518;-72
2023/02/04 18:32:07;;;;;;;;;14.75;13.00;;;;;11.56;100.00;103731.94;4920776;28;50337;-67
2023/02/04 18:34:39;;;;;;;;;14.00;14.00;;;;;11.45;100.00;103712.84;4916602;28;49763;-73
2023/02/04 18:37:28;;;;;;;;;13.25;13.25;;;;;11.52;100.00;103730.84;4915718;28;49662;-74
2023/02/04 18:40:29;;;;;;;;;17.00;15.75;;;;;11.45;100.00;103712.84;4901519;28;49883;-74
2023/02/04 18:43:17;;;;;;;;;16.75;14.75;;;;;11.37;100.00;103706.19;4910121;28;50964;-70
2023/02/04 18:45:43;;;;;;;;;14.00;11.25;;;;;11.44;100.00;103726.81;4917506;28;49483;-70
2023/02/04 18:48:14;;;;;;;;;15.75;15.75;;;;;11.47;100.00;103733.16;4920492;28;49347;-71
2023/02/04 18:50:40;;;;;;;;;19.25;19.25;;;;;11.33;100.00;103712.06;4920997;28;49664;-71
2023/02/04 18:53:11;;;;;;;;;17.75;15.75;;;;;11.48;100.00;103736.72;4917722;28;52720;-70
2023/02/04 18:55:42;;;;;;;;;21.75;16.75;;;;;11.47;100.00;103737.53;4920211;28;49595;-71
2023/02/04 18:58:16;;;;;;;;;27.25;21.75;;;;;11.44;100.00;103739.97;4921773;28;49576;-70
2023/02/04 19:00:46;;;;;;;;;18.00;18.00;;;;;11.31;100.00;103727.75;4919635;28;49685;-71
2023/02/04 19:03:29;;;;;;;;;14.25;13.25;;;;;11.29;100.00;103721.50;4921957;28;49681;-70
2023/02/04 19:06:00;;;;;;;;;16.75;15.75;;;;;11.43;100.00;103753.94;4920577;28;49348;-70
2023/02/04 19:08:44;;;;;;;;;21.00;16.25;;;;;11.22;100.00;103737.66;4925679;28;49629;-70
2023/02/04 19:11:33;;;;;;;;;16.00;16.00;;;;;11.30;100.00;103753.97;4923013;28;49698;-66
2023/02/04 19:14:01;;;;;;;;;15.25;14.00;;;;;11.13;100.00;103722.19;4923138;28;50353;-69
2023/02/04 19:16:36;;;;;;;;;15.75;15.75;;;;;10.92;100.00;103702.38;4929091;28;49520;-69
2023/02/04 19:19:22;;;;;;;;;16.00;15.50;;;;;11.07;100.00;103724.41;4929275;28;49616;-67
2023/02/04 19:21:48;;;;;;;;;14.00;12.25;;;;;11.23;100.00;103749.09;4930649;28;49491;-72
2023/02/04 19:24:19;;;;;;;;;10.00;10.00;;;;;11.07;100.00;103720.88;4926968;28;50798;-70
2023/02/04 19:26:56;;;;;;;;;13.50;13.25;;;;;11.15;100.00;103749.50;4913058;28;49725;-68
2023/02/04 19:29:23;;;;;;;;;17.50;15.50;;;;;11.16;100.00;103766.19;4914443;28;49856;-68
2023/02/04 19:31:53;;;;;;;;;11.00;11.00;;;;;11.14;100.00;103757.28;4914437;28;50074;-67
2023/02/04 19:34:32;;;;;;;;;15.25;14.00;;;;;10.77;100.00;103699.63;4922223;28;50009;-67
2023/02/04 19:36:57;;;;;;;;;15.25;13.50;;;;;11.01;100.00;103742.44;4929126;28;49750;-67
2023/02/04 19:39:39;;;;;;;;;15.00;14.25;;;;;10.62;100.00;103674.09;4928797;28;49395;-68
2023/02/04 19:42:33;;;;;;;;;13.25;13.00;;;;;11.16;100.00;103771.44;4930366;28;49512;-67
2023/02/04 19:45:01;;;;;;;;;15.25;13.00;;;;;10.90;100.00;103743.41;4926022;28;50377;-68
2023/02/04 19:47:43;;;;;;;;;12.50;10.25;;;;;10.76;100.00;103710.97;4929381;28;49779;-66
2023/02/04 19:50:12;;;;;;;;;10.00;10.00;;;;;11.09;100.00;103777.09;4928540;28;49457;-68
2023/02/04 19:52:42;;;;;;;;;15.25;12.75;;;;;11.10;100.00;103776.31;4929064;28;49588;-71
2023/02/04 19:55:17;;;;;;;;;10.75;10.25;;;;;11.05;100.00;103785.59;4928096;28;50240;-68
2023/02/04 19:57:48;;;;;;;;;9.75;9.50;;;;;10.49;100.00;103693.34;4929155;28;49613;-68
2023/02/04 20:00:21;;;;;;;;;9.75;9.75;;;;;10.95;100.00;103796.28;4929569;28;49602;-68
2023/02/04 20:02:46;;;;;;;;;10.50;10.50;;;;;10.93;100.00;103808.44;4929328;28;49368;-66
2023/02/04 20:05:19;;;;;;;;;11.25;10.50;;;;;10.48;100.00;103715.16;4929259;28;50095;-68
2023/02/04 20:07:45;;;;;;;;;9.75;8.75;;;;;10.84;100.00;103792.94;4924842;28;49810;-68
2023/02/04 20:10:19;;;;;;;;;9.25;9.00;;;;;10.86;100.00;103797.50;4924771;28;49699;-67
2023/02/04 20:12:45;;;;;;;;;8.50;8.00;;;;;10.84;100.00;103804.38;4928345;28;49843;-68
2023/02/04 20:15:16;;;;;;;;;11.25;11.25;;;;;10.76;100.00;103775.75;4927217;28;58400;-68
2023/02/04 20:17:47;;;;;;;;;13.25;9.50;;;;;10.74;100.00;103775.66;4929907;28;49470;-68
2023/02/04 20:20:21;;;;;;;;;11.25;10.25;;;;;10.84;100.00;103798.22;4928083;28;49675;-68
2023/02/04 20:22:58;;;;;;;;;10.75;9.75;;;;;10.54;100.00;103741.84;4929597;28;49704;-68
2023/02/04 20:25:34;;;;;;;;;7.75;7.75;;;;;10.53;100.00;103753.19;4929193;28;50127;-68
2023/02/04 20:28:29;;;;;;;;;9.00;8.50;;;;;10.80;100.00;103796.16;4929283;28;49693;-68
2023/02/04 20:30:58;;;;;;;;;11.25;11.25;;;;;10.17;100.00;103683.25;4924712;28;49498;-68